This is the latest recevied weather packets stored in our database for station/object R6DH-11. If no packets are shown the sender has not sent any weather packets the latest 10 day(s).
| Time | Temp. | Humidity | Pressure | Rain* | Wind** | Luminosity | Snow |
|---|---|---|---|---|---|---|---|
| 1777724178 | 11.67° C | 48% | 1019.4 hPa | - | - | - | - |
| 1777723278 | 10.56° C | 55% | 1019.4 hPa | - | - | - | - |
| 1777721479 | 12.78° C | 39% | 1019.3 hPa | - | - | - | - |
| 1777720578 | 11.67° C | 45% | 1019.7 hPa | - | - | - | - |
| 1777719678 | 10° C | 51% | 1019.7 hPa | - | - | - | - |
| 1777718783 | 10.56° C | 54% | 1019.7 hPa | - | - | - | - |
| 1777714285 | 10° C | 53% | 1019.9 hPa | - | - | - | - |
| 1777712479 | 10.56° C | 54% | 1020.1 hPa | - | - | - | - |
| 1777711579 | 10° C | 56% | 1020.1 hPa | - | - | - | - |
| 1777710679 | 8.89° C | 57% | 1019.9 hPa | - | - | - | - |
| 1777709779 | 10° C | 56% | 1020 hPa | - | - | - | - |
| 1777708879 | 10° C | 52% | 1019.9 hPa | - | - | - | - |
| 1777707979 | 10° C | 59% | 1020 hPa | - | - | - | - |
| 1777707078 | 10° C | 58% | 1020 hPa | - | - | - | - |
| 1777706178 | 10.56° C | 54% | 1020.2 hPa | - | - | - | - |
| 1777704378 | 8.89° C | 61% | 1020.2 hPa | - | - | - | - |
| 1777690881 | 5° C | 83% | 1019.1 hPa | - | - | - | - |
| 1777689980 | 3.89° C | 84% | 1018.8 hPa | - | - | - | - |
| 1777689080 | 3.89° C | 84% | 1018.9 hPa | - | - | - | - |
| 1777673772 | 5° C | 82% | 1018.2 hPa | - | - | - | - |
| 1777672872 | 5° C | 82% | 1018.4 hPa | - | - | - | - |
| 1777671069 | 5.56° C | 82% | 1018.4 hPa | - | - | - | - |
| 1777670175 | 5.56° C | 83% | 1018.3 hPa | - | - | - | - |
| 1777668372 | 5° C | 83% | 1018.3 hPa | - | - | - | - |
| 1777667472 | 5° C | 83% | 1018.2 hPa | - | - | - | - |
* Rain since midnight (hover to see other rain measurements)
** Current wind speed in m/s (hover to see current wind gust speed)